sensor_id;sensor_type;location;lat;lon;timestamp;pressure;altitude;pressure_sealevel;temperature;humidity
66742;BME280;53654;54.152;19.432;2022-08-05T00:00:22;101589.55;;;22.09;56.58
66742;BME280;53654;54.152;19.432;2022-08-05T00:03:05;101584.94;;;22.05;56.57
66742;BME280;53654;54.152;19.432;2022-08-05T00:05:42;101583.66;;;22.02;56.57
66742;BME280;53654;54.152;19.432;2022-08-05T00:08:30;101578.88;;;21.97;56.45
66742;BME280;53654;54.152;19.432;2022-08-05T00:11:08;101577.08;;;21.93;56.56
66742;BME280;53654;54.152;19.432;2022-08-05T00:13:56;101575.33;;;21.88;56.73
66742;BME280;53654;54.152;19.432;2022-08-05T00:16:25;101574.76;;;21.85;56.70
66742;BME280;53654;54.152;19.432;2022-08-05T00:19:13;101571.71;;;21.82;56.53
66742;BME280;53654;54.152;19.432;2022-08-05T00:21:41;101569.17;;;21.79;56.61
66742;BME280;53654;54.152;19.432;2022-08-05T00:24:09;101571.60;;;21.76;56.66
66742;BME280;53654;54.152;19.432;2022-08-05T00:26:45;101572.79;;;21.73;56.60
66742;BME280;53654;54.152;19.432;2022-08-05T00:29:19;101569.20;;;21.70;56.61
66742;BME280;53654;54.152;19.432;2022-08-05T00:31:52;101568.77;;;21.67;56.72
66742;BME280;53654;54.152;19.432;2022-08-05T00:34:42;101570.20;;;21.63;56.79
66742;BME280;53654;54.152;19.432;2022-08-05T00:37:31;101567.33;;;21.59;56.71
66742;BME280;53654;54.152;19.432;2022-08-05T00:40:20;101566.23;;;21.56;56.67
66742;BME280;53654;54.152;19.432;2022-08-05T00:42:57;101566.17;;;21.52;56.71
66742;BME280;53654;54.152;19.432;2022-08-05T00:45:25;101566.11;;;21.50;56.76
66742;BME280;53654;54.152;19.432;2022-08-05T00:48:07;101567.83;;;21.47;56.63
66742;BME280;53654;54.152;19.432;2022-08-05T00:50:38;101562.08;;;21.44;56.74
66742;BME280;53654;54.152;19.432;2022-08-05T00:53:11;101563.63;;;21.41;56.62
66742;BME280;53654;54.152;19.432;2022-08-05T00:55:59;101564.29;;;21.38;56.84
66742;BME280;53654;54.152;19.432;2022-08-05T00:58:27;101565.38;;;21.33;56.74
66742;BME280;53654;54.152;19.432;2022-08-05T01:00:55;101567.08;;;21.31;56.80
66742;BME280;53654;54.152;19.432;2022-08-05T01:03:24;101568.98;;;21.28;56.73
66742;BME280;53654;54.152;19.432;2022-08-05T01:06:00;101563.93;;;21.25;56.62
66742;BME280;53654;54.152;19.432;2022-08-05T01:08:33;101558.21;;;21.21;56.48
66742;BME280;53654;54.152;19.432;2022-08-05T01:11:26;101560.60;;;21.18;56.49
66742;BME280;53654;54.152;19.432;2022-08-05T01:17:08;101560.13;;;21.13;56.48
66742;BME280;53654;54.152;19.432;2022-08-05T01:19:54;101560.06;;;21.10;56.41
66742;BME280;53654;54.152;19.432;2022-08-05T01:29:01;101555.60;;;21.02;56.23
66742;BME280;53654;54.152;19.432;2022-08-05T01:31:44;101549.65;;;21.00;56.18
66742;BME280;53654;54.152;19.432;2022-08-05T01:34:19;101547.23;;;20.98;56.06
66742;BME280;53654;54.152;19.432;2022-08-05T01:37:12;101549.90;;;20.98;55.79
66742;BME280;53654;54.152;19.432;2022-08-05T01:39:52;101545.36;;;20.96;55.90
66742;BME280;53654;54.152;19.432;2022-08-05T01:42:26;101543.35;;;20.93;55.71
66742;BME280;53654;54.152;19.432;2022-08-05T01:44:59;101543.33;;;20.94;55.55
66742;BME280;53654;54.152;19.432;2022-08-05T01:47:31;101542.50;;;20.92;55.70
66742;BME280;53654;54.152;19.432;2022-08-05T01:50:28;101533.77;;;20.88;55.63
66742;BME280;53654;54.152;19.432;2022-08-05T01:53:02;101533.98;;;20.87;55.52
66742;BME280;53654;54.152;19.432;2022-08-05T01:55:32;101531.60;;;20.85;55.50
66742;BME280;53654;54.152;19.432;2022-08-05T01:58:04;101531.70;;;20.82;55.59
66742;BME280;53654;54.152;19.432;2022-08-05T02:00:55;101534.60;;;20.80;55.52
66742;BME280;53654;54.152;19.432;2022-08-05T02:03:32;101533.28;;;20.77;55.53
66742;BME280;53654;54.152;19.432;2022-08-05T02:06:03;101532.09;;;20.76;55.54
66742;BME280;53654;54.152;19.432;2022-08-05T02:08:52;101527.80;;;20.72;55.59
66742;BME280;53654;54.152;19.432;2022-08-05T02:11:34;101525.10;;;20.69;55.44
66742;BME280;53654;54.152;19.432;2022-08-05T02:14:16;101523.99;;;20.65;55.60
66742;BME280;53654;54.152;19.432;2022-08-05T02:16:53;101521.09;;;20.63;55.62
66742;BME280;53654;54.152;19.432;2022-08-05T02:19:36;101519.10;;;20.59;55.83
66742;BME280;53654;54.152;19.432;2022-08-05T02:22:33;101516.23;;;20.55;55.79
66742;BME280;53654;54.152;19.432;2022-08-05T02:25:08;101512.09;;;20.52;55.76
66742;BME280;53654;54.152;19.432;2022-08-05T02:27:40;101513.59;;;20.50;55.73
66742;BME280;53654;54.152;19.432;2022-08-05T02:30:42;101508.89;;;20.47;55.81
66742;BME280;53654;54.152;19.432;2022-08-05T02:33:21;101505.92;;;20.46;55.74
66742;BME280;53654;54.152;19.432;2022-08-05T02:36:09;101502.14;;;20.44;55.86
66742;BME280;53654;54.152;19.432;2022-08-05T02:38:47;101503.77;;;20.43;55.87
66742;BME280;53654;54.152;19.432;2022-08-05T02:41:23;101500.95;;;20.42;55.79
66742;BME280;53654;54.152;19.432;2022-08-05T02:44:07;101498.91;;;20.40;55.91
66742;BME280;53654;54.152;19.432;2022-08-05T02:46:42;101505.13;;;20.39;56.05
66742;BME280;53654;54.152;19.432;2022-08-05T02:49:33;101505.89;;;20.37;55.96
66742;BME280;53654;54.152;19.432;2022-08-05T02:52:06;101504.38;;;20.35;55.89
66742;BME280;53654;54.152;19.432;2022-08-05T02:54:36;101501.05;;;20.34;55.98
66742;BME280;53654;54.152;19.432;2022-08-05T02:57:17;101502.23;;;20.31;56.03
66742;BME280;53654;54.152;19.432;2022-08-05T03:00:07;101504.75;;;20.29;56.16
66742;BME280;53654;54.152;19.432;2022-08-05T03:02:38;101507.13;;;20.27;56.13
66742;BME280;53654;54.152;19.432;2022-08-05T03:05:11;101505.94;;;20.25;56.25
66742;BME280;53654;54.152;19.432;2022-08-05T03:07:42;101511.33;;;20.24;56.17
66742;BME280;53654;54.152;19.432;2022-08-05T03:10:30;101506.29;;;20.21;56.34
66742;BME280;53654;54.152;19.432;2022-08-05T03:12:59;101506.55;;;20.19;56.42
66742;BME280;53654;54.152;19.432;2022-08-05T03:15:26;101501.17;;;20.16;56.39
66742;BME280;53654;54.152;19.432;2022-08-05T03:17:55;101500.77;;;20.13;56.63
66742;BME280;53654;54.152;19.432;2022-08-05T03:20:24;101500.86;;;20.10;56.78
66742;BME280;53654;54.152;19.432;2022-08-05T03:22:53;101505.86;;;20.09;56.72
66742;BME280;53654;54.152;19.432;2022-08-05T03:25:25;101505.01;;;20.08;56.88
66742;BME280;53654;54.152;19.432;2022-08-05T03:28:14;101504.69;;;20.07;56.91
66742;BME280;53654;54.152;19.432;2022-08-05T03:30:47;101502.21;;;20.07;57.08
66742;BME280;53654;54.152;19.432;2022-08-05T03:33:17;101496.75;;;20.06;57.20
66742;BME280;53654;54.152;19.432;2022-08-05T03:35:46;101500.64;;;20.06;57.19
66742;BME280;53654;54.152;19.432;2022-08-05T03:38:16;101501.69;;;20.07;57.28
66742;BME280;53654;54.152;19.432;2022-08-05T03:41:00;101501.86;;;20.07;57.44
66742;BME280;53654;54.152;19.432;2022-08-05T03:43:37;101499.19;;;20.07;57.48
66742;BME280;53654;54.152;19.432;2022-08-05T03:46:25;101500.22;;;20.08;57.58
66742;BME280;53654;54.152;19.432;2022-08-05T03:48:57;101502.43;;;20.11;57.47
66742;BME280;53654;54.152;19.432;2022-08-05T03:51:37;101500.17;;;20.14;57.69
66742;BME280;53654;54.152;19.432;2022-08-05T03:54:34;101501.46;;;20.18;57.69
66742;BME280;53654;54.152;19.432;2022-08-05T03:57:29;101503.72;;;20.23;57.61
66742;BME280;53654;54.152;19.432;2022-08-05T04:00:13;101508.46;;;20.29;57.62
66742;BME280;53654;54.152;19.432;2022-08-05T04:02:46;101507.04;;;20.35;57.57
66742;BME280;53654;54.152;19.432;2022-08-05T04:05:30;101509.15;;;20.41;57.41
66742;BME280;53654;54.152;19.432;2022-08-05T04:08:02;101508.58;;;20.46;57.42
66742;BME280;53654;54.152;19.432;2022-08-05T04:10:43;101511.86;;;20.54;57.39
66742;BME280;53654;54.152;19.432;2022-08-05T04:13:12;101507.48;;;20.61;57.37
66742;BME280;53654;54.152;19.432;2022-08-05T04:15:40;101508.94;;;20.69;57.06
66742;BME280;53654;54.152;19.432;2022-08-05T04:18:22;101510.45;;;20.76;57.23
66742;BME280;53654;54.152;19.432;2022-08-05T04:20:53;101509.27;;;20.85;57.09
66742;BME280;53654;54.152;19.432;2022-08-05T04:23:23;101508.75;;;20.94;56.97
66742;BME280;53654;54.152;19.432;2022-08-05T04:26:13;101510.63;;;21.04;56.55
66742;BME280;53654;54.152;19.432;2022-08-05T04:28:44;101506.76;;;21.17;56.66
66742;BME280;53654;54.152;19.432;2022-08-05T04:31:18;101506.59;;;21.30;56.45
66742;BME280;53654;54.152;19.432;2022-08-05T04:33:47;101504.88;;;21.41;56.21
66742;BME280;53654;54.152;19.432;2022-08-05T04:36:35;101506.45;;;21.67;55.63
66742;BME280;53654;54.152;19.432;2022-08-05T04:39:18;101500.68;;;21.86;55.37
66742;BME280;53654;54.152;19.432;2022-08-05T04:41:47;101496.91;;;22.31;54.95
66742;BME280;53654;54.152;19.432;2022-08-05T04:44:18;101492.54;;;23.12;53.44
66742;BME280;53654;54.152;19.432;2022-08-05T04:46:57;101488.14;;;23.99;51.86
66742;BME280;53654;54.152;19.432;2022-08-05T04:49:26;101488.02;;;24.80;50.43
66742;BME280;53654;54.152;19.432;2022-08-05T04:52:14;101486.48;;;25.68;48.58
66742;BME280;53654;54.152;19.432;2022-08-05T04:54:42;101483.91;;;26.43;46.95
66742;BME280;53654;54.152;19.432;2022-08-05T04:57:11;101480.02;;;27.11;44.40
66742;BME280;53654;54.152;19.432;2022-08-05T04:59:39;101477.25;;;27.76;43.43
66742;BME280;53654;54.152;19.432;2022-08-05T05:02:07;101473.42;;;28.26;41.86
66742;BME280;53654;54.152;19.432;2022-08-05T05:04:55;101481.22;;;28.82;41.13
66742;BME280;53654;54.152;19.432;2022-08-05T05:07:30;101485.53;;;29.32;39.83
66742;BME280;53654;54.152;19.432;2022-08-05T05:10:02;101482.63;;;29.78;38.55
66742;BME280;53654;54.152;19.432;2022-08-05T05:12:33;101481.40;;;30.21;38.36
66742;BME280;53654;54.152;19.432;2022-08-05T05:15:04;101478.23;;;30.56;37.62
66742;BME280;53654;54.152;19.432;2022-08-05T05:17:38;101484.08;;;30.94;37.14
66742;BME280;53654;54.152;19.432;2022-08-05T05:20:24;101482.95;;;31.32;36.01
66742;BME280;53654;54.152;19.432;2022-08-05T05:22:56;101484.28;;;31.54;35.57
66742;BME280;53654;54.152;19.432;2022-08-05T05:25:25;101482.30;;;31.76;35.27
66742;BME280;53654;54.152;19.432;2022-08-05T05:28:08;101479.23;;;31.95;34.52
66742;BME280;53654;54.152;19.432;2022-08-05T05:30:37;101487.06;;;32.00;34.58
66742;BME280;53654;54.152;19.432;2022-08-05T05:33:06;101489.50;;;32.17;34.31
66742;BME280;53654;54.152;19.432;2022-08-05T05:35:44;101493.61;;;32.30;33.42
66742;BME280;53654;54.152;19.432;2022-08-05T05:38:15;101496.34;;;32.36;33.36
66742;BME280;53654;54.152;19.432;2022-08-05T05:40:55;101489.80;;;32.47;33.23
66742;BME280;53654;54.152;19.432;2022-08-05T05:43:23;101485.64;;;32.51;33.00
66742;BME280;53654;54.152;19.432;2022-08-05T05:46:11;101481.85;;;32.58;33.31
66742;BME280;53654;54.152;19.432;2022-08-05T05:48:42;101481.52;;;32.82;32.99
66742;BME280;53654;54.152;19.432;2022-08-05T05:51:23;101479.66;;;32.95;32.82
66742;BME280;53654;54.152;19.432;2022-08-05T05:53:54;101476.79;;;33.00;32.76
66742;BME280;53654;54.152;19.432;2022-08-05T05:56:30;101472.98;;;33.20;32.24
66742;BME280;53654;54.152;19.432;2022-08-05T05:59:05;101474.48;;;33.24;32.15
66742;BME280;53654;54.152;19.432;2022-08-05T06:01:37;101477.86;;;32.91;32.49
66742;BME280;53654;54.152;19.432;2022-08-05T06:04:08;101469.16;;;32.59;32.81
66742;BME280;53654;54.152;19.432;2022-08-05T06:06:41;101474.20;;;32.29;33.19
66742;BME280;53654;54.152;19.432;2022-08-05T06:09:15;101473.17;;;32.14;33.81
66742;BME280;53654;54.152;19.432;2022-08-05T06:12:03;101470.19;;;32.23;33.57
66742;BME280;53654;54.152;19.432;2022-08-05T06:14:32;101474.05;;;32.24;33.74
66742;BME280;53654;54.152;19.432;2022-08-05T06:17:01;101467.05;;;32.28;33.99
66742;BME280;53654;54.152;19.432;2022-08-05T06:19:50;101464.71;;;32.51;33.75
66742;BME280;53654;54.152;19.432;2022-08-05T06:22:29;101463.88;;;32.73;33.47
66742;BME280;53654;54.152;19.432;2022-08-05T06:25:03;101464.05;;;32.93;33.14
66742;BME280;53654;54.152;19.432;2022-08-05T06:27:51;101463.59;;;33.13;33.04
66742;BME280;53654;54.152;19.432;2022-08-05T06:30:39;101464.70;;;33.10;32.72
66742;BME280;53654;54.152;19.432;2022-08-05T06:33:08;101467.17;;;32.97;33.17
66742;BME280;53654;54.152;19.432;2022-08-05T06:35:37;101465.84;;;33.06;33.64
66742;BME280;53654;54.152;19.432;2022-08-05T06:38:25;101466.27;;;33.30;33.29
66742;BME280;53654;54.152;19.432;2022-08-05T06:41:04;101464.16;;;33.35;33.02
66742;BME280;53654;54.152;19.432;2022-08-05T06:43:35;101463.03;;;33.26;32.81
66742;BME280;53654;54.152;19.432;2022-08-05T06:46:24;101462.21;;;33.19;32.87
66742;BME280;53654;54.152;19.432;2022-08-05T06:48:58;101467.56;;;32.98;33.07
66742;BME280;53654;54.152;19.432;2022-08-05T06:51:28;101463.98;;;32.71;33.50
66742;BME280;53654;54.152;19.432;2022-08-05T06:53:59;101462.52;;;32.43;34.10
66742;BME280;53654;54.152;19.432;2022-08-05T06:56:30;101461.89;;;32.23;34.42
66742;BME280;53654;54.152;19.432;2022-08-05T06:59:03;101463.56;;;32.00;35.25
66742;BME280;53654;54.152;19.432;2022-08-05T07:01:36;101462.86;;;31.79;35.32
66742;BME280;53654;54.152;19.432;2022-08-05T07:04:09;101459.41;;;31.42;36.28
66742;BME280;53654;54.152;19.432;2022-08-05T07:06:40;101462.65;;;31.20;37.03
66742;BME280;53654;54.152;19.432;2022-08-05T07:09:09;101459.61;;;30.96;37.18
66742;BME280;53654;54.152;19.432;2022-08-05T07:11:37;101454.67;;;30.75;37.59
66742;BME280;53654;54.152;19.432;2022-08-05T07:14:06;101453.95;;;30.58;38.34
66742;BME280;53654;54.152;19.432;2022-08-05T07:16:58;101454.50;;;30.39;38.83
66742;BME280;53654;54.152;19.432;2022-08-05T07:19:49;101455.60;;;30.22;38.97
66742;BME280;53654;54.152;19.432;2022-08-05T07:22:37;101453.03;;;30.02;39.31
66742;BME280;53654;54.152;19.432;2022-08-05T07:25:08;101456.50;;;29.87;39.59
66742;BME280;53654;54.152;19.432;2022-08-05T07:27:57;101460.10;;;29.78;39.78
66742;BME280;53654;54.152;19.432;2022-08-05T07:30:36;101453.61;;;29.69;40.21
66742;BME280;53654;54.152;19.432;2022-08-05T07:33:09;101452.45;;;29.63;40.54
66742;BME280;53654;54.152;19.432;2022-08-05T07:35:44;101458.48;;;29.64;40.78
66742;BME280;53654;54.152;19.432;2022-08-05T07:38:33;101456.70;;;29.53;40.72
66742;BME280;53654;54.152;19.432;2022-08-05T07:41:15;101457.95;;;29.46;41.46
66742;BME280;53654;54.152;19.432;2022-08-05T07:44:06;101456.44;;;29.49;41.30
66742;BME280;53654;54.152;19.432;2022-08-05T07:46:47;101457.77;;;29.45;41.39
66742;BME280;53654;54.152;19.432;2022-08-05T07:49:17;101455.76;;;29.32;41.59
66742;BME280;53654;54.152;19.432;2022-08-05T07:51:46;101453.67;;;29.24;41.97
66742;BME280;53654;54.152;19.432;2022-08-05T07:54:23;101454.04;;;29.19;42.15
66742;BME280;53654;54.152;19.432;2022-08-05T07:57:01;101453.98;;;29.12;42.06
66742;BME280;53654;54.152;19.432;2022-08-05T07:59:50;101452.35;;;29.15;41.92
66742;BME280;53654;54.152;19.432;2022-08-05T08:02:24;101448.59;;;29.17;41.53
66742;BME280;53654;54.152;19.432;2022-08-05T08:04:54;101447.59;;;29.18;41.39
66742;BME280;53654;54.152;19.432;2022-08-05T08:07:22;101447.60;;;29.18;41.59
66742;BME280;53654;54.152;19.432;2022-08-05T08:09:55;101452.43;;;29.16;41.55
66742;BME280;53654;54.152;19.432;2022-08-05T08:12:23;101449.84;;;29.10;41.69
66742;BME280;53654;54.152;19.432;2022-08-05T08:15:12;101449.02;;;29.04;41.42
66742;BME280;53654;54.152;19.432;2022-08-05T08:17:43;101454.05;;;29.04;41.77
66742;BME280;53654;54.152;19.432;2022-08-05T08:20:21;101450.73;;;29.06;41.29
66742;BME280;53654;54.152;19.432;2022-08-05T08:23:09;101445.69;;;29.03;41.67
66742;BME280;53654;54.152;19.432;2022-08-05T08:25:58;101443.14;;;29.04;41.38
66742;BME280;53654;54.152;19.432;2022-08-05T08:28:31;101436.98;;;29.04;41.70
66742;BME280;53654;54.152;19.432;2022-08-05T08:31:09;101437.24;;;29.15;41.56
66742;BME280;53654;54.152;19.432;2022-08-05T08:33:44;101432.86;;;29.21;41.30
66742;BME280;53654;54.152;19.432;2022-08-05T08:36:18;101428.19;;;29.30;41.42
66742;BME280;53654;54.152;19.432;2022-08-05T08:39:06;101423.01;;;29.35;41.30
66742;BME280;53654;54.152;19.432;2022-08-05T08:41:49;101417.90;;;29.38;41.01
66742;BME280;53654;54.152;19.432;2022-08-05T08:44:31;101424.71;;;29.45;41.07
66742;BME280;53654;54.152;19.432;2022-08-05T08:47:24;101423.77;;;29.53;40.43
66742;BME280;53654;54.152;19.432;2022-08-05T08:50:12;101421.20;;;29.65;40.28
66742;BME280;53654;54.152;19.432;2022-08-05T08:53:05;101421.32;;;29.75;39.93
66742;BME280;53654;54.152;19.432;2022-08-05T08:55:39;101425.07;;;29.73;39.37
66742;BME280;53654;54.152;19.432;2022-08-05T08:58:28;101416.52;;;29.68;39.35
66742;BME280;53654;54.152;19.432;2022-08-05T09:01:11;101413.20;;;29.77;39.53
66742;BME280;53654;54.152;19.432;2022-08-05T09:03:49;101407.33;;;29.93;39.50
66742;BME280;53654;54.152;19.432;2022-08-05T09:06:25;101404.62;;;30.11;39.12
66742;BME280;53654;54.152;19.432;2022-08-05T09:09:00;101409.42;;;30.27;38.23
66742;BME280;53654;54.152;19.432;2022-08-05T09:11:32;101408.09;;;30.39;38.27
66742;BME280;53654;54.152;19.432;2022-08-05T09:14:19;101413.58;;;30.58;37.83
66742;BME280;53654;54.152;19.432;2022-08-05T09:17:08;101404.67;;;30.72;37.46
66742;BME280;53654;54.152;19.432;2022-08-05T09:19:58;101405.34;;;30.86;37.42
66742;BME280;53654;54.152;19.432;2022-08-05T09:23:07;101408.64;;;30.96;37.31
66742;BME280;53654;54.152;19.432;2022-08-05T09:25:50;101404.25;;;31.03;36.45
66742;BME280;53654;54.152;19.432;2022-08-05T09:28:32;101400.48;;;31.05;36.13
66742;BME280;53654;54.152;19.432;2022-08-05T09:34:03;101393.83;;;31.07;36.32
66742;BME280;53654;54.152;19.432;2022-08-05T09:39:21;101393.96;;;31.03;35.74
66742;BME280;53654;54.152;19.432;2022-08-05T09:42:12;101390.14;;;31.05;34.76
66742;BME280;53654;54.152;19.432;2022-08-05T09:44:52;101380.50;;;31.02;35.01
66742;BME280;53654;54.152;19.432;2022-08-05T09:47:25;101373.65;;;31.03;34.97
66742;BME280;53654;54.152;19.432;2022-08-05T09:50:18;101373.84;;;31.06;34.77
66742;BME280;53654;54.152;19.432;2022-08-05T09:53:05;101373.71;;;31.04;34.82
66742;BME280;53654;54.152;19.432;2022-08-05T09:55:35;101371.15;;;31.00;34.80
66742;BME280;53654;54.152;19.432;2022-08-05T09:58:25;101369.05;;;31.01;35.20
66742;BME280;53654;54.152;19.432;2022-08-05T10:01:05;101363.29;;;30.99;34.88
66742;BME280;53654;54.152;19.432;2022-08-05T10:04:06;101357.66;;;30.98;34.85
66742;BME280;53654;54.152;19.432;2022-08-05T10:06:38;101350.55;;;31.01;34.87
66742;BME280;53654;54.152;19.432;2022-08-05T10:09:21;101347.96;;;31.04;34.79
66742;BME280;53654;54.152;19.432;2022-08-05T10:12:07;101352.59;;;31.06;34.36
66742;BME280;53654;54.152;19.432;2022-08-05T10:15:22;101344.65;;;31.06;34.25
66742;BME280;53654;54.152;19.432;2022-08-05T10:18:15;101347.60;;;31.12;34.38
66742;BME280;53654;54.152;19.432;2022-08-05T10:20:55;101344.71;;;31.15;34.62
66742;BME280;53654;54.152;19.432;2022-08-05T10:23:34;101346.96;;;31.14;34.22
66742;BME280;53654;54.152;19.432;2022-08-05T10:26:23;101341.88;;;31.19;34.54
66742;BME280;53654;54.152;19.432;2022-08-05T10:29:00;101338.14;;;31.20;34.45
66742;BME280;53654;54.152;19.432;2022-08-05T10:31:30;101335.73;;;31.25;34.38
66742;BME280;53654;54.152;19.432;2022-08-05T10:34:19;101336.46;;;31.29;34.26
66742;BME280;53654;54.152;19.432;2022-08-05T10:36:57;101333.95;;;31.33;33.86
66742;BME280;53654;54.152;19.432;2022-08-05T10:39:32;101323.80;;;31.30;33.65
66742;BME280;53654;54.152;19.432;2022-08-05T10:42:22;101322.06;;;31.25;33.68
66742;BME280;53654;54.152;19.432;2022-08-05T10:45:03;101322.93;;;31.21;33.97
66742;BME280;53654;54.152;19.432;2022-08-05T10:47:52;101322.33;;;31.09;34.02
66742;BME280;53654;54.152;19.432;2022-08-05T10:56:19;101313.94;;;30.81;34.28
66742;BME280;53654;54.152;19.432;2022-08-05T11:01:34;101304.45;;;30.71;35.14
66742;BME280;53654;54.152;19.432;2022-08-05T11:04:22;101301.90;;;30.72;34.34
66742;BME280;53654;54.152;19.432;2022-08-05T11:09:25;101293.77;;;30.72;34.21
66742;BME280;53654;54.152;19.432;2022-08-05T11:15:27;101287.92;;;30.67;35.13
66742;BME280;53654;54.152;19.432;2022-08-05T11:18:30;101288.17;;;30.64;34.75
66742;BME280;53654;54.152;19.432;2022-08-05T11:21:01;101287.81;;;30.57;34.72
66742;BME280;53654;54.152;19.432;2022-08-05T11:23:51;101284.60;;;30.55;35.18
66742;BME280;53654;54.152;19.432;2022-08-05T11:26:32;101284.87;;;30.58;35.38
66742;BME280;53654;54.152;19.432;2022-08-05T11:29:02;101280.81;;;30.61;35.25
66742;BME280;53654;54.152;19.432;2022-08-05T11:31:42;101279.23;;;30.65;34.56
66742;BME280;53654;54.152;19.432;2022-08-05T11:34:39;101281.55;;;30.68;34.78
66742;BME280;53654;54.152;19.432;2022-08-05T11:41:01;101277.50;;;30.64;33.85
66742;BME280;53654;54.152;19.432;2022-08-05T11:46:36;101274.59;;;30.60;33.67
66742;BME280;53654;54.152;19.432;2022-08-05T11:49:25;101270.13;;;30.64;34.11
66742;BME280;53654;54.152;19.432;2022-08-05T11:51:54;101272.81;;;30.68;34.32
66742;BME280;53654;54.152;19.432;2022-08-05T11:57:02;101275.07;;;30.70;34.11
66742;BME280;53654;54.152;19.432;2022-08-05T11:59:51;101279.98;;;30.69;33.35
66742;BME280;53654;54.152;19.432;2022-08-05T12:02:24;101274.98;;;30.67;33.50
66742;BME280;53654;54.152;19.432;2022-08-05T12:05:01;101277.89;;;30.64;33.88
66742;BME280;53654;54.152;19.432;2022-08-05T12:07:36;101275.91;;;30.64;34.01
66742;BME280;53654;54.152;19.432;2022-08-05T12:10:26;101264.67;;;30.61;34.25
66742;BME280;53654;54.152;19.432;2022-08-05T12:13:13;101261.89;;;30.62;34.47
66742;BME280;53654;54.152;19.432;2022-08-05T12:15:46;101263.20;;;30.65;34.78
66742;BME280;53654;54.152;19.432;2022-08-05T12:18:27;101254.30;;;30.64;34.40
66742;BME280;53654;54.152;19.432;2022-08-05T12:21:27;101255.91;;;30.64;34.55
66742;BME280;53654;54.152;19.432;2022-08-05T12:24:08;101257.75;;;30.66;34.60
66742;BME280;53654;54.152;19.432;2022-08-05T12:26:40;101253.83;;;30.65;34.81
66742;BME280;53654;54.152;19.432;2022-08-05T12:29:14;101255.35;;;30.69;34.65
66742;BME280;53654;54.152;19.432;2022-08-05T12:34:22;101248.02;;;30.64;34.53
66742;BME280;53654;54.152;19.432;2022-08-05T12:37:00;101240.85;;;30.61;34.66
66742;BME280;53654;54.152;19.432;2022-08-05T12:39:31;101238.09;;;30.60;35.00
66742;BME280;53654;54.152;19.432;2022-08-05T12:42:15;101237.88;;;30.62;34.73
66742;BME280;53654;54.152;19.432;2022-08-05T12:44:46;101240.38;;;30.65;35.20
66742;BME280;53654;54.152;19.432;2022-08-05T12:47:28;101240.98;;;30.68;34.69
66742;BME280;53654;54.152;19.432;2022-08-05T12:49:58;101240.03;;;30.69;34.05
66742;BME280;53654;54.152;19.432;2022-08-05T12:52:33;101234.04;;;30.69;34.23
66742;BME280;53654;54.152;19.432;2022-08-05T12:55:24;101233.13;;;30.72;34.33
66742;BME280;53654;54.152;19.432;2022-08-05T12:57:56;101228.20;;;30.76;34.14
66742;BME280;53654;54.152;19.432;2022-08-05T13:00:45;101221.95;;;30.78;34.36
66742;BME280;53654;54.152;19.432;2022-08-05T13:03:37;101219.61;;;30.80;34.57
66742;BME280;53654;54.152;19.432;2022-08-05T13:06:15;101219.05;;;30.82;33.84
66742;BME280;53654;54.152;19.432;2022-08-05T13:08:46;101214.68;;;30.83;33.84
66742;BME280;53654;54.152;19.432;2022-08-05T13:11:26;101209.62;;;30.83;34.01
66742;BME280;53654;54.152;19.432;2022-08-05T13:14:22;101211.11;;;30.80;34.50
66742;BME280;53654;54.152;19.432;2022-08-05T13:17:15;101213.86;;;30.73;33.99
66742;BME280;53654;54.152;19.432;2022-08-05T13:20:13;101214.52;;;30.74;34.35
66742;BME280;53654;54.152;19.432;2022-08-05T13:22:51;101211.30;;;30.76;34.27
66742;BME280;53654;54.152;19.432;2022-08-05T13:25:19;101201.30;;;30.79;34.12
66742;BME280;53654;54.152;19.432;2022-08-05T13:28:08;101199.63;;;30.82;34.58
66742;BME280;53654;54.152;19.432;2022-08-05T13:30:37;101198.16;;;30.84;34.05
66742;BME280;53654;54.152;19.432;2022-08-05T13:33:06;101194.14;;;30.85;34.02
66742;BME280;53654;54.152;19.432;2022-08-05T13:35:34;101197.75;;;30.89;34.41
66742;BME280;53654;54.152;19.432;2022-08-05T13:38:19;101197.58;;;30.89;33.95
66742;BME280;53654;54.152;19.432;2022-08-05T13:40:58;101191.03;;;30.84;34.09
66742;BME280;53654;54.152;19.432;2022-08-05T13:43:27;101188.40;;;30.76;34.70
66742;BME280;53654;54.152;19.432;2022-08-05T13:46:15;101192.67;;;30.71;34.93
66742;BME280;53654;54.152;19.432;2022-08-05T13:49:03;101191.09;;;30.66;34.81
66742;BME280;53654;54.152;19.432;2022-08-05T13:51:39;101189.46;;;30.62;34.29
66742;BME280;53654;54.152;19.432;2022-08-05T13:54:14;101186.25;;;30.60;34.39
66742;BME280;53654;54.152;19.432;2022-08-05T13:56:43;101183.45;;;30.57;34.88
66742;BME280;53654;54.152;19.432;2022-08-05T13:59:19;101184.85;;;30.57;34.59
66742;BME280;53654;54.152;19.432;2022-08-05T14:01:55;101183.50;;;30.58;34.96
66742;BME280;53654;54.152;19.432;2022-08-05T14:04:33;101182.27;;;30.60;34.62
66742;BME280;53654;54.152;19.432;2022-08-05T14:07:26;101175.89;;;30.65;34.33
66742;BME280;53654;54.152;19.432;2022-08-05T14:10:16;101173.92;;;30.73;33.86
66742;BME280;53654;54.152;19.432;2022-08-05T14:12:57;101176.23;;;30.78;34.01
66742;BME280;53654;54.152;19.432;2022-08-05T14:15:27;101178.09;;;30.81;34.02
66742;BME280;53654;54.152;19.432;2022-08-05T14:18:15;101176.80;;;30.84;34.21
66742;BME280;53654;54.152;19.432;2022-08-05T14:20:49;101172.29;;;30.84;34.47